createdAt,value
2019-05-05T00:01:50.239Z,99.90
2019-05-05T00:04:47.189Z,99.90
2019-05-05T00:07:21.067Z,99.90
2019-05-05T00:09:50.447Z,99.90
2019-05-05T00:12:31.983Z,99.90
2019-05-05T00:15:14.500Z,99.90
2019-05-05T00:17:45.004Z,99.90
2019-05-05T00:20:14.568Z,99.90
2019-05-05T00:22:45.508Z,99.90
2019-05-05T00:25:14.735Z,99.90
2019-05-05T00:27:45.268Z,99.90
2019-05-05T00:30:14.551Z,99.90
2019-05-05T00:32:44.241Z,99.90
2019-05-05T00:35:14.865Z,99.90
2019-05-05T00:37:45.037Z,99.90
2019-05-05T00:40:14.974Z,99.90
2019-05-05T00:42:45.575Z,99.90
2019-05-05T00:45:14.993Z,99.90
2019-05-05T00:47:54.381Z,99.90
2019-05-05T00:50:25.244Z,99.90
2019-05-05T00:52:55.137Z,99.90
2019-05-05T00:55:24.473Z,99.90
2019-05-05T00:57:54.850Z,99.90
2019-05-05T01:01:02.552Z,99.90
2019-05-05T01:03:31.910Z,99.90
2019-05-05T01:06:06.890Z,99.90
2019-05-05T01:08:35.999Z,99.90
2019-05-05T01:11:05.170Z,99.90
2019-05-05T01:13:35.187Z,99.90
2019-05-05T01:16:04.850Z,99.90
2019-05-05T01:18:35.140Z,99.90
2019-05-05T01:21:04.612Z,99.90
2019-05-05T01:23:34.983Z,99.90
2019-05-05T01:26:05.030Z,99.90
2019-05-05T01:28:35.503Z,99.90
2019-05-05T01:31:08.741Z,99.90
2019-05-05T01:34:04.717Z,99.90
2019-05-05T01:36:34.562Z,99.90
2019-05-05T01:39:21.467Z,99.90
2019-05-05T01:41:57.106Z,99.90
2019-05-05T01:44:26.596Z,99.90
2019-05-05T01:46:55.803Z,99.90
2019-05-05T01:49:25.351Z,99.90
2019-05-05T01:51:55.287Z,99.90
2019-05-05T01:54:25.135Z,99.90
2019-05-05T01:56:55.393Z,99.90
2019-05-05T01:59:25.221Z,99.90
2019-05-05T02:01:55.215Z,99.90
2019-05-05T02:04:25.169Z,99.90
2019-05-05T02:06:55.055Z,99.90
2019-05-05T02:09:24.915Z,99.90
2019-05-05T02:11:54.850Z,99.90
2019-05-05T02:14:24.755Z,99.90
2019-05-05T02:16:54.883Z,99.90
2019-05-05T02:19:25.038Z,99.90
2019-05-05T02:21:54.875Z,99.90
2019-05-05T02:24:25.167Z,99.90
2019-05-05T02:26:54.713Z,99.90
2019-05-05T02:29:39.565Z,99.90
2019-05-05T02:32:26.648Z,99.90
2019-05-05T02:34:59.137Z,99.90
2019-05-05T02:37:28.320Z,99.90
2019-05-05T02:40:02.933Z,99.90
2019-05-05T02:42:28.846Z,99.90
2019-05-05T02:45:01.630Z,99.90
2019-05-05T02:47:56.065Z,99.90
2019-05-05T02:50:46.572Z,99.90
2019-05-05T02:53:04.048Z,99.90
2019-05-05T02:55:35.015Z,99.90
2019-05-05T02:58:04.281Z,99.90
2019-05-05T03:00:51.113Z,99.90
2019-05-05T03:03:20.422Z,99.90
2019-05-05T03:05:50.393Z,99.90
2019-05-05T03:08:19.877Z,99.90
2019-05-05T03:10:49.593Z,99.90
2019-05-05T03:13:20.659Z,99.90
2019-05-05T03:15:55.066Z,99.90
2019-05-05T03:18:25.159Z,99.90
2019-05-05T03:21:03.792Z,99.90
2019-05-05T03:23:25.489Z,99.90
2019-05-05T03:25:54.737Z,99.90
2019-05-05T03:28:25.938Z,99.90
2019-05-05T03:30:55.945Z,99.90
2019-05-05T03:33:25.596Z,99.90
2019-05-05T03:35:54.795Z,99.90
2019-05-05T03:38:24.794Z,99.90
2019-05-05T03:40:55.706Z,99.90
2019-05-05T03:43:29.292Z,99.90
2019-05-05T03:46:00.831Z,99.90
2019-05-05T03:48:30.063Z,99.90
2019-05-05T03:50:59.187Z,99.90
2019-05-05T03:53:29.052Z,99.90
2019-05-05T03:55:58.692Z,99.90
2019-05-05T03:58:27.851Z,99.90
2019-05-05T04:01:27.755Z,99.90
2019-05-05T04:04:15.907Z,99.90
2019-05-05T04:06:45.602Z,99.90
2019-05-05T04:09:14.696Z,99.90
2019-05-05T04:11:44.415Z,99.90
2019-05-05T04:14:14.425Z,99.90
2019-05-05T04:16:54.017Z,99.90
2019-05-05T04:19:24.113Z,99.90
2019-05-05T04:21:53.687Z,99.90
2019-05-05T04:24:23.892Z,99.90
2019-05-05T04:26:54.597Z,99.90
2019-05-05T04:29:24.366Z,99.90
2019-05-05T04:31:54.160Z,99.90
2019-05-05T04:34:24.151Z,99.90
2019-05-05T04:36:54.656Z,99.90
2019-05-05T04:39:24.417Z,99.90
2019-05-05T04:41:54.537Z,99.90
2019-05-05T04:44:24.054Z,99.90
2019-05-05T04:47:00.415Z,99.90
2019-05-05T04:50:04.325Z,99.90
2019-05-05T04:52:34.453Z,99.90
2019-05-05T04:55:04.038Z,99.90
2019-05-05T04:57:35.336Z,99.90
2019-05-05T05:00:05.034Z,99.90
2019-05-05T05:02:50.894Z,99.90
2019-05-05T05:05:27.265Z,99.90
2019-05-05T05:07:58.108Z,99.90
2019-05-05T05:10:27.374Z,99.90
2019-05-05T05:12:56.812Z,99.90
2019-05-05T05:15:25.993Z,99.90
2019-05-05T05:18:14.803Z,99.90
2019-05-05T05:20:44.987Z,99.90
2019-05-05T05:23:14.437Z,99.90
2019-05-05T05:25:43.924Z,99.90
2019-05-05T05:28:14.481Z,99.90
2019-05-05T05:30:44.315Z,99.90
2019-05-05T05:33:14.903Z,99.90
2019-05-05T05:35:44.276Z,99.90
2019-05-05T05:38:14.078Z,99.90
2019-05-05T05:40:55.034Z,99.90
2019-05-05T05:43:33.419Z,99.90
2019-05-05T05:46:10.378Z,99.90
2019-05-05T05:49:04.836Z,99.90
2019-05-05T05:51:34.623Z,99.90
2019-05-05T05:54:04.183Z,99.90
2019-05-05T05:56:34.296Z,99.90
2019-05-05T05:59:04.031Z,99.90
2019-05-05T06:01:34.565Z,99.90
2019-05-05T06:04:04.162Z,99.90
2019-05-05T06:06:34.699Z,99.90
2019-05-05T06:09:04.669Z,99.90
2019-05-05T06:11:34.422Z,99.90
2019-05-05T06:14:04.185Z,99.90
2019-05-05T06:16:34.198Z,99.90
2019-05-05T06:19:03.756Z,99.90
2019-05-05T06:21:33.802Z,99.90
2019-05-05T06:24:04.496Z,99.90
2019-05-05T06:26:34.439Z,99.90
2019-05-05T06:29:04.414Z,99.90
2019-05-05T06:31:34.135Z,99.90
2019-05-05T06:34:03.805Z,99.90
2019-05-05T06:36:34.101Z,99.90
2019-05-05T06:39:04.710Z,99.90
2019-05-05T06:41:40.497Z,99.90
2019-05-05T06:44:25.879Z,99.90
2019-05-05T06:47:16.809Z,99.90
2019-05-05T06:49:45.947Z,99.90
2019-05-05T06:52:15.076Z,99.90
2019-05-05T06:54:44.181Z,99.90
2019-05-05T06:57:13.771Z,99.90
2019-05-05T06:59:43.933Z,99.90
2019-05-05T07:02:14.584Z,99.90
2019-05-05T07:04:44.475Z,99.90
2019-05-05T07:07:14.697Z,99.90
2019-05-05T07:09:44.358Z,99.90
2019-05-05T07:12:13.975Z,99.90
2019-05-05T07:14:44.557Z,99.90
2019-05-05T07:17:14.300Z,99.90
2019-05-05T07:19:44.999Z,99.90
2019-05-05T07:22:17.393Z,99.90
2019-05-05T07:24:45.622Z,99.90
2019-05-05T07:27:15.081Z,99.90
2019-05-05T07:29:44.210Z,99.90
2019-05-05T07:32:14.262Z,99.90
2019-05-05T07:34:59.464Z,99.90
2019-05-05T07:37:28.834Z,99.90
2019-05-05T07:39:58.287Z,99.90
2019-05-05T07:42:27.734Z,99.90
2019-05-05T07:44:56.852Z,99.90
2019-05-05T07:47:26.041Z,99.90
2019-05-05T07:49:55.221Z,99.90
2019-05-05T07:52:24.648Z,99.90
2019-05-05T07:54:55.105Z,99.90
2019-05-05T07:57:24.355Z,98.90
2019-05-05T07:59:54.099Z,97.50
2019-05-05T08:02:23.741Z,98.50
2019-05-05T08:04:54.438Z,98.70
2019-05-05T08:07:24.082Z,99.80
2019-05-05T08:09:53.807Z,99.70
2019-05-05T08:12:24.894Z,99.90
2019-05-05T08:14:53.978Z,99.90
2019-05-05T08:17:42.133Z,99.90
2019-05-05T08:20:19.449Z,99.90
2019-05-05T08:22:48.779Z,99.90
2019-05-05T08:25:37.468Z,99.90
2019-05-05T08:28:14.709Z,99.90
2019-05-05T08:30:49.552Z,99.60
2019-05-05T08:33:19.019Z,98.00
2019-05-05T08:35:48.145Z,96.90
2019-05-05T08:38:17.234Z,96.30
2019-05-05T08:40:46.335Z,96.00
2019-05-05T08:43:15.483Z,93.70
2019-05-05T08:45:44.843Z,93.10
2019-05-05T08:48:14.408Z,94.20
2019-05-05T08:50:43.956Z,94.30
2019-05-05T08:53:13.931Z,94.90
2019-05-05T08:55:44.260Z,96.80
2019-05-05T08:58:14.859Z,96.70
2019-05-05T09:00:44.560Z,97.00
2019-05-05T09:03:14.063Z,96.60
2019-05-05T09:05:43.814Z,98.00
2019-05-05T09:08:13.796Z,97.30
2019-05-05T09:10:44.792Z,96.30
2019-05-05T09:13:14.427Z,96.60
2019-05-05T09:15:44.332Z,97.20
2019-05-05T09:18:14.214Z,98.00
2019-05-05T09:20:44.553Z,99.90
2019-05-05T09:23:14.792Z,99.90
2019-05-05T09:26:18.537Z,99.90
2019-05-05T09:29:09.818Z,99.90
2019-05-05T09:31:39.068Z,99.90
2019-05-05T09:34:08.168Z,99.90
2019-05-05T09:36:37.963Z,99.90
2019-05-05T09:39:07.715Z,99.90
2019-05-05T09:41:36.834Z,99.90
2019-05-05T09:44:06.005Z,99.90
2019-05-05T09:46:35.554Z,99.90
2019-05-05T09:49:04.844Z,99.90
2019-05-05T09:51:34.714Z,99.90
2019-05-05T09:54:12.733Z,99.90
2019-05-05T09:56:35.049Z,99.90
2019-05-05T09:59:04.506Z,99.90
2019-05-05T10:01:34.046Z,99.90
2019-05-05T10:04:11.050Z,99.90
2019-05-05T10:06:40.775Z,99.90
2019-05-05T10:09:10.945Z,99.90
2019-05-05T10:11:40.346Z,99.90
2019-05-05T10:14:09.459Z,99.90
2019-05-05T10:16:38.643Z,99.90
2019-05-05T10:19:08.877Z,99.90
2019-05-05T10:21:39.134Z,99.90
2019-05-05T10:24:28.608Z,99.90
2019-05-05T10:26:54.427Z,99.90
2019-05-05T10:29:24.233Z,99.90
2019-05-05T10:31:54.491Z,99.90
2019-05-05T10:34:24.656Z,99.90
2019-05-05T10:36:54.269Z,99.90
2019-05-05T10:39:34.854Z,99.90
2019-05-05T10:42:04.143Z,99.90
2019-05-05T10:44:34.084Z,99.90
2019-05-05T10:47:04.575Z,99.90
2019-05-05T10:49:34.026Z,99.90
2019-05-05T10:52:03.703Z,99.90
2019-05-05T10:54:43.246Z,99.90
2019-05-05T10:57:04.246Z,99.90
2019-05-05T10:59:34.420Z,99.90
2019-05-05T11:02:04.995Z,99.90
2019-05-05T11:04:34.330Z,99.90
2019-05-05T11:07:04.166Z,99.90
2019-05-05T11:09:34.522Z,99.90
2019-05-05T11:12:03.787Z,99.90
2019-05-05T11:14:33.694Z,99.90
2019-05-05T11:17:04.100Z,99.90
2019-05-05T11:19:34.198Z,99.90
2019-05-05T11:22:03.627Z,99.90
2019-05-05T11:24:34.568Z,99.90
2019-05-05T11:27:04.526Z,99.90
2019-05-05T11:29:37.198Z,99.90
2019-05-05T11:32:12.666Z,99.90
2019-05-05T11:34:44.180Z,99.90
2019-05-05T11:37:16.275Z,99.90
2019-05-05T11:39:45.696Z,99.90
2019-05-05T11:42:15.066Z,99.90
2019-05-05T11:44:47.271Z,99.90
2019-05-05T11:47:15.025Z,99.90
2019-05-05T11:49:44.591Z,99.90
2019-05-05T11:52:13.705Z,99.90
2019-05-05T11:54:43.858Z,99.90
2019-05-05T11:57:13.570Z,99.90
2019-05-05T11:59:43.247Z,99.90
2019-05-05T12:02:13.982Z,99.90
2019-05-05T12:04:43.587Z,99.90
2019-05-05T12:07:14.580Z,99.90
2019-05-05T12:09:52.077Z,99.90
2019-05-05T12:12:21.270Z,99.90
2019-05-05T12:14:51.262Z,99.90
2019-05-05T12:17:36.270Z,99.90
2019-05-05T12:20:06.922Z,99.90
2019-05-05T12:22:36.070Z,99.90
2019-05-05T12:25:08.375Z,99.90
2019-05-05T12:27:43.639Z,99.90
2019-05-05T12:30:14.318Z,99.90
2019-05-05T12:32:43.873Z,99.90
2019-05-05T12:35:14.848Z,99.90
2019-05-05T12:37:44.586Z,99.90
2019-05-05T12:40:14.412Z,99.90
2019-05-05T12:42:44.009Z,99.90
2019-05-05T12:45:17.454Z,99.90
2019-05-05T12:48:04.211Z,99.90
2019-05-05T12:50:33.831Z,99.90
2019-05-05T12:53:04.054Z,99.90
2019-05-05T12:55:41.454Z,99.90
2019-05-05T12:58:04.214Z,99.90
2019-05-05T13:00:35.019Z,99.90
2019-05-05T13:03:04.701Z,99.90
2019-05-05T13:05:34.199Z,99.90
2019-05-05T13:08:03.954Z,99.90
2019-05-05T13:10:33.781Z,99.90
2019-05-05T13:13:03.777Z,99.90
2019-05-05T13:15:33.929Z,99.90
2019-05-05T13:18:03.687Z,99.90
2019-05-05T13:20:50.208Z,99.90
2019-05-05T13:23:27.054Z,99.90
2019-05-05T13:26:04.431Z,99.90
2019-05-05T13:28:34.442Z,99.90
2019-05-05T13:31:04.649Z,99.90
2019-05-05T13:33:36.953Z,99.90
2019-05-05T13:36:04.865Z,99.90
2019-05-05T13:38:34.412Z,99.90
2019-05-05T13:41:03.770Z,99.90
2019-05-05T13:43:34.238Z,99.90
2019-05-05T13:46:24.884Z,99.90
2019-05-05T13:48:56.666Z,99.90
2019-05-05T13:51:31.926Z,99.90
2019-05-05T13:54:02.662Z,99.90
2019-05-05T13:56:33.571Z,99.90
2019-05-05T13:59:02.871Z,99.90
2019-05-05T14:01:34.166Z,99.90
2019-05-05T14:04:04.579Z,99.90
2019-05-05T14:06:34.703Z,99.90
2019-05-05T14:09:04.860Z,99.90
2019-05-05T14:11:34.099Z,99.90
2019-05-05T14:14:03.493Z,99.90
2019-05-05T14:16:34.083Z,99.90
2019-05-05T14:19:04.433Z,99.90
2019-05-05T14:21:34.103Z,99.90
2019-05-05T14:24:22.612Z,99.90
2019-05-05T14:26:54.084Z,99.90
2019-05-05T14:29:54.283Z,99.90
2019-05-05T14:32:26.223Z,99.90
2019-05-05T14:35:04.647Z,99.90
2019-05-05T14:37:37.557Z,99.90
2019-05-05T14:40:07.310Z,99.90
2019-05-05T14:42:36.708Z,99.90
2019-05-05T14:45:06.387Z,99.90
2019-05-05T14:47:35.765Z,99.90
2019-05-05T14:50:05.201Z,99.90
2019-05-05T14:52:34.338Z,99.90
2019-05-05T14:55:03.960Z,99.90
2019-05-05T14:57:33.707Z,99.90
2019-05-05T15:00:04.689Z,99.90
2019-05-05T15:02:34.795Z,99.90
2019-05-05T15:05:21.788Z,99.90
2019-05-05T15:08:13.596Z,99.90
2019-05-05T15:11:00.585Z,99.90
2019-05-05T15:13:30.061Z,99.90
2019-05-05T15:15:59.340Z,99.90
2019-05-05T15:18:28.535Z,99.90
2019-05-05T15:20:57.644Z,99.90
2019-05-05T15:23:26.767Z,99.90
2019-05-05T15:25:56.135Z,99.90
2019-05-05T15:28:25.517Z,99.90
2019-05-05T15:30:54.923Z,99.90
2019-05-05T15:33:24.430Z,99.90
2019-05-05T15:35:53.990Z,99.90
2019-05-05T15:38:24.392Z,99.90
2019-05-05T15:40:54.827Z,99.90
2019-05-05T15:43:24.716Z,99.90
2019-05-05T15:45:56.003Z,99.90
2019-05-05T15:48:25.170Z,99.90
2019-05-05T15:50:54.831Z,99.90
2019-05-05T15:53:24.247Z,99.90
2019-05-05T15:55:54.139Z,99.90
2019-05-05T15:58:23.867Z,99.90
2019-05-05T16:00:53.804Z,99.90
2019-05-05T16:03:23.145Z,99.90
2019-05-05T16:06:03.763Z,99.90
2019-05-05T16:08:34.072Z,99.90
2019-05-05T16:11:03.972Z,99.90
2019-05-05T16:13:35.189Z,99.90
2019-05-05T16:16:20.987Z,99.90
2019-05-05T16:19:05.521Z,99.90
2019-05-05T16:21:37.752Z,99.90
2019-05-05T16:24:16.553Z,99.90
2019-05-05T16:26:45.650Z,99.90
2019-05-05T16:29:14.886Z,99.90
2019-05-05T16:31:44.871Z,99.90
2019-05-05T16:34:14.296Z,99.90
2019-05-05T16:36:44.003Z,99.90
2019-05-05T16:39:16.368Z,99.90
2019-05-05T16:41:45.016Z,99.90
2019-05-05T16:44:15.809Z,99.90
2019-05-05T16:46:45.179Z,99.90
2019-05-05T16:49:14.575Z,99.90
2019-05-05T16:51:50.388Z,99.90
2019-05-05T16:54:28.879Z,99.90
2019-05-05T16:56:58.089Z,99.90
2019-05-05T16:59:27.274Z,99.90
2019-05-05T17:01:56.752Z,99.90
2019-05-05T17:04:25.951Z,99.90
2019-05-05T17:06:55.350Z,99.90
2019-05-05T17:09:25.636Z,99.90
2019-05-05T17:12:10.441Z,99.90
2019-05-05T17:14:57.508Z,99.90
2019-05-05T17:18:01.059Z,99.90
2019-05-05T17:20:33.661Z,99.90
2019-05-05T17:23:06.055Z,99.90
2019-05-05T17:25:35.459Z,99.90
2019-05-05T17:28:04.664Z,99.90
2019-05-05T17:30:34.231Z,99.90
2019-05-05T17:33:03.846Z,99.90
2019-05-05T17:35:33.832Z,99.90
2019-05-05T17:38:13.703Z,99.90
2019-05-05T17:41:00.981Z,99.90
2019-05-05T17:43:38.835Z,99.90
2019-05-05T17:46:29.931Z,99.90
2019-05-05T17:49:14.427Z,99.90
2019-05-05T17:51:48.143Z,99.90
2019-05-05T17:54:33.929Z,99.90
2019-05-05T17:57:03.662Z,99.90
2019-05-05T17:59:33.712Z,99.90
2019-05-05T18:02:04.731Z,99.90
2019-05-05T18:04:34.687Z,99.90
2019-05-05T18:07:28.706Z,99.90
2019-05-05T18:10:06.542Z,99.90
2019-05-05T18:12:49.898Z,99.90
2019-05-05T18:15:37.068Z,99.90
2019-05-05T18:18:06.202Z,99.90
2019-05-05T18:20:35.599Z,99.90
2019-05-05T18:23:04.966Z,99.90
2019-05-05T18:25:34.708Z,99.90
2019-05-05T18:28:16.146Z,99.90
2019-05-05T18:30:35.164Z,99.90
2019-05-05T18:33:04.296Z,99.90
2019-05-05T18:35:33.935Z,99.90
2019-05-05T18:38:04.062Z,99.90
2019-05-05T18:40:33.727Z,99.90
2019-05-05T18:43:07.071Z,99.90
2019-05-05T18:45:36.274Z,99.90
2019-05-05T18:48:05.711Z,99.90
2019-05-05T18:50:34.843Z,99.90
2019-05-05T18:53:04.676Z,99.90
2019-05-05T18:55:33.973Z,99.90
2019-05-05T18:58:05.105Z,99.90
2019-05-05T19:00:52.073Z,99.90
2019-05-05T19:03:25.271Z,99.90
2019-05-05T19:06:04.216Z,99.90
2019-05-05T19:08:51.221Z,99.90
2019-05-05T19:11:09.077Z,99.90
2019-05-05T19:13:38.446Z,99.90
2019-05-05T19:16:07.923Z,99.90
2019-05-05T19:18:37.387Z,99.90
2019-05-05T19:21:16.051Z,99.90
2019-05-05T19:23:45.147Z,99.90
2019-05-05T19:26:14.883Z,99.90
2019-05-05T19:28:47.452Z,99.90
2019-05-05T19:31:14.998Z,99.90
2019-05-05T19:33:45.146Z,99.90
2019-05-05T19:36:15.050Z,99.90
2019-05-05T19:38:44.859Z,99.90
2019-05-05T19:41:14.444Z,99.90
2019-05-05T19:43:54.814Z,99.90
2019-05-05T19:46:40.076Z,99.90
2019-05-05T19:49:15.765Z,99.90
2019-05-05T19:51:45.367Z,99.90
2019-05-05T19:54:15.120Z,99.90
2019-05-05T19:56:44.764Z,99.90
2019-05-05T19:59:20.281Z,99.90
2019-05-05T20:01:49.504Z,99.90
2019-05-05T20:04:18.603Z,99.90
2019-05-05T20:06:48.656Z,99.90
2019-05-05T20:09:17.844Z,99.90
2019-05-05T20:11:46.947Z,99.90
2019-05-05T20:14:16.066Z,99.90
2019-05-05T20:17:04.639Z,99.90
2019-05-05T20:19:38.730Z,99.90
2019-05-05T20:22:08.135Z,99.90
2019-05-05T20:24:37.250Z,99.90
2019-05-05T20:27:06.421Z,99.90
2019-05-05T20:29:37.497Z,99.90
2019-05-05T20:32:06.393Z,99.90
2019-05-05T20:34:48.199Z,99.90
2019-05-05T20:37:20.369Z,99.90
2019-05-05T20:39:49.742Z,99.90
2019-05-05T20:42:19.612Z,99.90
2019-05-05T20:44:48.737Z,99.90
2019-05-05T20:47:18.114Z,99.90
2019-05-05T20:49:47.218Z,99.90
2019-05-05T20:52:16.342Z,99.90
2019-05-05T20:54:45.459Z,99.90
2019-05-05T20:57:14.654Z,99.90
2019-05-05T20:59:44.536Z,99.90
2019-05-05T21:02:14.168Z,99.90
2019-05-05T21:04:44.530Z,99.90
2019-05-05T21:07:14.122Z,99.90
2019-05-05T21:09:43.298Z,99.90
2019-05-05T21:12:13.800Z,99.90
2019-05-05T21:14:44.610Z,99.90
2019-05-05T21:17:14.037Z,99.90
2019-05-05T21:19:43.477Z,99.90
2019-05-05T21:22:30.605Z,99.90
2019-05-05T21:24:59.810Z,99.90
2019-05-05T21:27:28.907Z,99.90
2019-05-05T21:29:58.022Z,99.90
2019-05-05T21:32:27.191Z,99.90
2019-05-05T21:34:56.321Z,99.90
2019-05-05T21:37:25.422Z,99.90
2019-05-05T21:39:55.211Z,99.90
2019-05-05T21:42:24.592Z,99.90
2019-05-05T21:44:54.045Z,99.90
2019-05-05T21:47:24.018Z,99.90
2019-05-05T21:49:54.179Z,99.90
2019-05-05T21:52:30.995Z,99.90
2019-05-05T21:55:19.019Z,99.90
2019-05-05T21:58:06.023Z,99.90
2019-05-05T22:00:54.825Z,99.90
2019-05-05T22:03:35.963Z,99.90
2019-05-05T22:06:05.625Z,99.90
2019-05-05T22:08:35.691Z,99.90
2019-05-05T22:11:05.094Z,99.90
2019-05-05T22:13:36.391Z,99.90
2019-05-05T22:16:05.048Z,99.90
2019-05-05T22:18:34.162Z,99.90
2019-05-05T22:21:08.902Z,99.90
2019-05-05T22:23:38.473Z,99.90
2019-05-05T22:26:07.583Z,99.90
2019-05-05T22:28:36.941Z,99.90
2019-05-05T22:31:06.046Z,99.90
2019-05-05T22:33:35.130Z,99.90
2019-05-05T22:36:07.001Z,99.90
2019-05-05T22:38:35.359Z,99.90
2019-05-05T22:41:04.479Z,99.90
2019-05-05T22:43:34.664Z,99.90
2019-05-05T22:46:03.986Z,99.90
2019-05-05T22:48:34.543Z,99.90
2019-05-05T22:51:03.924Z,99.90
2019-05-05T22:53:34.699Z,99.90
2019-05-05T22:56:04.129Z,99.90
2019-05-05T22:58:34.838Z,99.90
2019-05-05T23:01:04.750Z,99.90
2019-05-05T23:03:40.505Z,99.90
2019-05-05T23:06:13.873Z,99.90
2019-05-05T23:08:45.223Z,99.90
2019-05-05T23:11:14.556Z,99.90
2019-05-05T23:13:44.402Z,99.90
2019-05-05T23:16:23.745Z,99.90
2019-05-05T23:18:54.720Z,99.90
2019-05-05T23:21:31.024Z,99.90
2019-05-05T23:24:24.967Z,99.90
2019-05-05T23:26:55.153Z,99.90
2019-05-05T23:29:26.489Z,99.90
2019-05-05T23:31:55.515Z,99.90
2019-05-05T23:34:24.943Z,99.90
2019-05-05T23:36:55.344Z,99.90
2019-05-05T23:39:24.438Z,99.90
2019-05-05T23:41:54.694Z,99.90
2019-05-05T23:44:24.335Z,99.90
2019-05-05T23:46:53.881Z,99.90
2019-05-05T23:49:24.209Z,99.90
2019-05-05T23:51:54.142Z,99.90
2019-05-05T23:54:24.574Z,99.90
2019-05-05T23:56:54.140Z,99.90
2019-05-05T23:59:24.134Z,99.90
